createdAt,value
2023-04-20T00:02:27.625Z,99327.61
2023-04-20T00:04:56.230Z,99327.55
2023-04-20T00:07:24.963Z,99324.75
2023-04-20T00:09:53.230Z,99323.03
2023-04-20T00:12:22.579Z,99322.77
2023-04-20T00:14:50.920Z,99322.25
2023-04-20T00:17:19.729Z,99323.85
2023-04-20T00:19:48.183Z,99323.98
2023-04-20T00:22:16.840Z,99319.58
2023-04-20T00:24:45.247Z,99319.75
2023-04-20T00:27:13.522Z,99321.67
2023-04-20T00:29:41.911Z,99313.83
2023-04-20T00:32:10.209Z,99310.71
2023-04-20T00:34:38.476Z,99311.85
2023-04-20T00:37:07.125Z,99307.56
2023-04-20T00:39:35.913Z,99307.16
2023-04-20T00:42:06.753Z,99300.45
2023-04-20T00:44:35.733Z,99296.55
2023-04-20T00:47:03.947Z,99300.05
2023-04-20T00:49:34.712Z,99299.05
2023-04-20T00:52:03.117Z,99294.77
2023-04-20T00:54:32.700Z,99287.86
2023-04-20T00:57:01.475Z,99285.98
2023-04-20T00:59:29.869Z,99282.10
2023-04-20T01:01:58.663Z,99281.43
2023-04-20T01:04:27.255Z,99279.66
2023-04-20T01:06:56.208Z,99280.10
2023-04-20T01:09:24.548Z,99276.98
2023-04-20T01:11:52.814Z,99277.89
2023-04-20T01:14:21.414Z,99272.89
2023-04-20T01:16:49.820Z,99274.85
2023-04-20T01:19:18.482Z,99270.73
2023-04-20T01:21:47.685Z,99272.58
2023-04-20T01:24:17.677Z,99269.64
2023-04-20T01:26:46.058Z,99266.18
2023-04-20T01:29:14.440Z,99263.44
2023-04-20T01:31:44.377Z,99265.34
2023-04-20T01:34:12.762Z,99266.53
2023-04-20T01:36:41.403Z,99267.05
2023-04-20T01:39:10.274Z,99268.56
2023-04-20T01:41:39.332Z,99269.56
2023-04-20T01:44:07.829Z,99268.42
2023-04-20T01:46:40.232Z,99265.73
2023-04-20T01:49:08.965Z,99263.30
2023-04-20T01:51:37.964Z,99264.00
2023-04-20T01:54:06.428Z,99260.27
2023-04-20T01:56:36.329Z,99257.96
2023-04-20T01:59:04.719Z,99253.08
2023-04-20T02:01:33.051Z,99257.06
2023-04-20T02:04:02.065Z,99254.43
2023-04-20T02:06:31.448Z,99252.81
2023-04-20T02:08:59.727Z,99249.61
2023-04-20T02:11:28.568Z,99248.73
2023-04-20T02:13:57.614Z,99252.58
2023-04-20T02:16:29.510Z,99245.08
2023-04-20T02:18:58.095Z,99244.09
2023-04-20T02:21:26.670Z,99246.01
2023-04-20T02:23:55.007Z,99243.48
2023-04-20T02:26:23.895Z,99242.28
2023-04-20T02:28:52.325Z,99239.77
2023-04-20T02:31:20.720Z,99240.67
2023-04-20T02:33:50.133Z,99239.76
2023-04-20T02:36:18.553Z,99238.35
2023-04-20T02:38:46.850Z,99232.52
2023-04-20T02:41:15.155Z,99231.14
2023-04-20T02:43:43.405Z,99231.23
2023-04-20T02:46:12.346Z,99228.58
2023-04-20T02:48:40.759Z,99225.58
2023-04-20T02:51:09.346Z,99222.92
2023-04-20T02:53:43.390Z,99221.45
2023-04-20T02:56:21.890Z,99217.20
2023-04-20T02:58:54.545Z,99216.63
2023-04-20T03:01:32.706Z,99216.32
2023-04-20T03:04:13.063Z,99214.39
2023-04-20T03:06:47.673Z,99215.30
2023-04-20T03:09:19.257Z,99221.26
2023-04-20T03:12:05.488Z,99221.19
2023-04-20T03:15:00.070Z,99220.63
2023-04-20T03:17:57.511Z,99218.59
2023-04-20T03:20:26.681Z,99221.64
2023-04-20T03:22:55.692Z,99215.44
2023-04-20T03:25:25.881Z,99216.23
2023-04-20T03:28:00.909Z,99218.33
2023-04-20T03:30:30.627Z,99219.09
2023-04-20T03:33:09.171Z,99220.66
2023-04-20T03:35:39.632Z,99218.99
2023-04-20T03:38:08.334Z,99217.98
2023-04-20T03:40:38.525Z,99219.68
2023-04-20T03:43:06.883Z,99215.34
2023-04-20T03:45:35.183Z,99214.92
2023-04-20T03:48:04.209Z,99216.80
2023-04-20T03:50:33.171Z,99216.61
2023-04-20T03:53:01.627Z,99214.76
2023-04-20T03:55:30.948Z,99213.13
2023-04-20T03:58:03.670Z,99211.88
2023-04-20T04:00:39.504Z,99210.05
2023-04-20T04:03:08.608Z,99211.51
2023-04-20T04:05:37.958Z,99208.08
2023-04-20T04:08:06.871Z,99211.35
2023-04-20T04:10:35.332Z,99209.89
2023-04-20T04:13:03.734Z,99214.64
2023-04-20T04:15:32.890Z,99211.20
2023-04-20T04:18:04.806Z,99212.62
2023-04-20T04:20:33.469Z,99210.79
2023-04-20T04:23:02.049Z,99208.42
2023-04-20T04:25:42.672Z,99208.42
2023-04-20T04:28:14.895Z,99212.55
2023-04-20T04:30:57.670Z,99215.52
2023-04-20T04:33:26.498Z,99219.48
2023-04-20T04:35:55.436Z,99218.39
2023-04-20T04:38:24.567Z,99216.07
2023-04-20T04:40:54.257Z,99212.95
2023-04-20T04:43:24.526Z,99220.03
2023-04-20T04:46:11.092Z,99216.20
2023-04-20T04:48:43.497Z,99214.91
2023-04-20T04:51:12.278Z,99212.67
2023-04-20T04:53:40.561Z,99215.70
2023-04-20T04:56:09.431Z,99211.98
2023-04-20T04:58:39.086Z,99208.85
2023-04-20T05:01:07.722Z,99213.92
2023-04-20T05:03:36.421Z,99212.36
2023-04-20T05:06:05.112Z,99207.06
2023-04-20T05:08:34.458Z,99208.27
2023-04-20T05:11:02.986Z,99200.30
2023-04-20T05:13:31.391Z,99202.88
2023-04-20T05:15:59.723Z,99201.07
2023-04-20T05:18:28.052Z,99204.63
2023-04-20T05:20:56.565Z,99202.61
2023-04-20T05:23:25.549Z,99206.79
2023-04-20T05:25:53.793Z,99206.13
2023-04-20T05:28:22.763Z,99202.45
2023-04-20T05:30:51.064Z,99205.30
2023-04-20T05:33:19.607Z,99206.24
2023-04-20T05:35:49.328Z,99210.73
2023-04-20T05:38:17.977Z,99209.20
2023-04-20T05:40:46.384Z,99212.33
2023-04-20T05:43:15.012Z,99213.23
2023-04-20T05:45:43.675Z,99217.09
2023-04-20T05:48:12.122Z,99221.95
2023-04-20T05:50:40.596Z,99220.66
2023-04-20T05:53:09.274Z,99219.98
2023-04-20T05:55:37.633Z,99224.79
2023-04-20T05:58:06.402Z,99227.06
2023-04-20T06:00:35.440Z,99224.60
2023-04-20T06:03:04.155Z,99227.28
2023-04-20T06:05:34.195Z,99228.05
2023-04-20T06:08:02.539Z,99221.89
2023-04-20T06:10:32.707Z,99220.02
2023-04-20T06:13:01.524Z,99215.13
2023-04-20T06:15:29.988Z,99214.62
2023-04-20T06:17:58.579Z,99222.79
2023-04-20T06:20:27.282Z,99218.67
2023-04-20T06:22:56.309Z,99218.38
2023-04-20T06:25:24.815Z,99212.27
2023-04-20T06:27:53.374Z,99210.27
2023-04-20T06:30:21.880Z,99213.30
2023-04-20T06:32:50.828Z,99210.68
2023-04-20T06:35:19.675Z,99207.61
2023-04-20T06:37:48.272Z,99206.27
2023-04-20T06:40:16.894Z,99205.77
2023-04-20T06:42:45.856Z,99205.73
2023-04-20T06:45:14.363Z,99202.83
2023-04-20T06:47:42.770Z,99194.30
2023-04-20T06:50:11.535Z,99188.16
2023-04-20T06:52:40.556Z,99181.81
2023-04-20T06:55:09.502Z,99177.50
2023-04-20T06:57:41.060Z,99180.84
2023-04-20T07:00:10.833Z,99179.60
2023-04-20T07:02:43.641Z,99182.48
2023-04-20T07:05:12.463Z,99179.40
2023-04-20T07:07:41.870Z,99175.34
2023-04-20T07:10:11.622Z,99167.36
2023-04-20T07:12:42.804Z,99167.64
2023-04-20T07:15:12.505Z,99169.48
2023-04-20T07:17:42.481Z,99167.29
2023-04-20T07:20:11.275Z,99171.35
2023-04-20T07:22:39.780Z,99170.31
2023-04-20T07:25:09.165Z,99170.78
2023-04-20T07:27:38.923Z,99172.82
2023-04-20T07:30:09.036Z,99166.61
2023-04-20T07:32:37.911Z,99171.75
2023-04-20T07:35:06.675Z,99172.26
2023-04-20T07:37:36.076Z,99176.20
2023-04-20T07:40:07.035Z,99170.83
2023-04-20T07:42:37.492Z,99172.45
2023-04-20T07:45:09.370Z,99172.80
2023-04-20T07:47:38.428Z,99170.27
2023-04-20T07:50:08.305Z,99167.04
2023-04-20T07:52:37.567Z,99161.81
2023-04-20T07:55:08.428Z,99166.30
2023-04-20T07:57:37.123Z,99162.55
2023-04-20T08:00:07.443Z,99163.92
2023-04-20T08:04:51.262Z,99164.81
2023-04-20T08:07:19.937Z,99170.17
2023-04-20T08:09:48.405Z,99172.96
2023-04-20T08:12:16.838Z,99169.93
2023-04-20T08:14:45.683Z,99168.96
2023-04-20T08:17:14.212Z,99170.73
2023-04-20T08:19:44.660Z,99172.95
2023-04-20T08:22:14.394Z,99179.41
2023-04-20T08:24:42.764Z,99167.67
2023-04-20T08:27:11.117Z,99169.32
2023-04-20T08:29:40.061Z,99165.91
2023-04-20T08:32:12.801Z,99168.98
2023-04-20T08:34:41.213Z,99177.42
2023-04-20T08:37:09.968Z,99174.55
2023-04-20T08:39:39.275Z,99176.86
2023-04-20T08:42:07.854Z,99174.81
2023-04-20T08:44:36.082Z,99184.75
2023-04-20T08:47:04.473Z,99183.52
2023-04-20T08:49:33.749Z,99180.87
2023-04-20T08:52:02.104Z,99179.65
2023-04-20T08:54:30.576Z,99184.25
2023-04-20T08:56:59.963Z,99188.35
2023-04-20T08:59:28.308Z,99179.65
2023-04-20T09:01:56.885Z,99185.06
2023-04-20T09:04:27.183Z,99184.21
2023-04-20T09:06:56.666Z,99186.02
2023-04-20T09:09:25.903Z,99188.26
2023-04-20T09:12:07.899Z,99187.23
2023-04-20T09:14:45.355Z,99188.23
2023-04-20T09:17:15.607Z,99192.24
2023-04-20T09:19:44.904Z,99191.74
2023-04-20T09:22:13.230Z,99190.64
2023-04-20T09:24:42.824Z,99182.19
2023-04-20T09:27:18.143Z,99179.40
2023-04-20T09:30:00.388Z,99182.99
2023-04-20T09:32:29.881Z,99176.83
2023-04-20T09:34:58.519Z,99183.30
2023-04-20T09:37:27.124Z,99173.89
2023-04-20T09:39:56.185Z,99184.68
2023-04-20T09:42:24.478Z,99180.96
2023-04-20T09:44:52.916Z,99178.64
2023-04-20T09:47:21.630Z,99181.83
2023-04-20T09:49:50.326Z,99175.95
2023-04-20T09:52:19.048Z,99182.48
2023-04-20T09:54:47.638Z,99175.53
2023-04-20T09:57:16.510Z,99183.14
2023-04-20T09:59:46.885Z,99176.46
2023-04-20T10:02:15.412Z,99181.88
2023-04-20T10:04:57.290Z,99184.14
2023-04-20T10:07:27.186Z,99178.34
2023-04-20T10:10:09.997Z,99185.56
2023-04-20T10:12:55.714Z,99186.92
2023-04-20T10:15:25.112Z,99185.29
2023-04-20T10:17:53.698Z,99183.02
2023-04-20T10:20:22.917Z,99183.90
2023-04-20T10:22:54.977Z,99184.52
2023-04-20T10:25:24.633Z,99190.20
2023-04-20T10:27:57.793Z,99185.14
2023-04-20T10:30:26.951Z,99187.88
2023-04-20T10:33:04.774Z,99188.90
2023-04-20T10:35:45.704Z,99191.70
2023-04-20T10:38:14.717Z,99190.17
2023-04-20T10:40:43.226Z,99189.80
2023-04-20T10:43:24.304Z,99186.20
2023-04-20T10:45:53.588Z,99190.10
2023-04-20T10:48:22.322Z,99188.20
2023-04-20T10:50:50.835Z,99186.67
2023-04-20T10:53:22.830Z,99186.72
2023-04-20T10:56:01.297Z,99181.27
2023-04-20T10:58:29.827Z,99185.02
2023-04-20T11:01:02.286Z,99181.75
2023-04-20T11:03:31.601Z,99179.67
2023-04-20T11:06:01.925Z,99185.48
2023-04-20T11:08:40.569Z,99184.12
2023-04-20T11:11:20.728Z,99190.95
2023-04-20T11:13:49.221Z,99191.95
2023-04-20T11:16:18.724Z,99193.24
2023-04-20T11:18:54.607Z,99194.88
2023-04-20T11:21:22.961Z,99193.33
2023-04-20T11:23:51.654Z,99197.05
2023-04-20T11:26:20.040Z,99203.48
2023-04-20T11:28:56.191Z,99213.10
2023-04-20T11:31:27.270Z,99219.15
2023-04-20T11:33:55.856Z,99230.48
2023-04-20T11:36:24.896Z,99230.80
2023-04-20T11:38:53.254Z,99233.14
2023-04-20T11:41:21.994Z,99230.66
2023-04-20T11:43:51.455Z,99222.64
2023-04-20T11:46:20.745Z,99220.35
2023-04-20T11:48:49.871Z,99218.06
2023-04-20T11:51:18.206Z,99216.48
2023-04-20T11:53:46.840Z,99215.92
2023-04-20T11:56:15.452Z,99212.52
2023-04-20T11:58:44.002Z,99208.56
2023-04-20T12:01:13.399Z,99206.15
2023-04-20T12:03:42.029Z,99203.69
2023-04-20T12:06:11.138Z,99205.08
2023-04-20T12:08:39.583Z,99203.67
2023-04-20T12:11:08.149Z,99199.11
2023-04-20T12:13:37.014Z,99194.25
2023-04-20T12:16:05.805Z,99194.02
2023-04-20T12:18:34.342Z,99190.14
2023-04-20T12:21:02.770Z,99187.97
2023-04-20T12:23:31.458Z,99193.00
2023-04-20T12:25:59.978Z,99188.97
2023-04-20T12:28:28.349Z,99193.27
2023-04-20T12:30:56.765Z,99191.69
2023-04-20T12:33:25.216Z,99185.58
2023-04-20T12:35:54.438Z,99185.92
2023-04-20T12:38:22.960Z,99187.54
2023-04-20T12:40:51.713Z,99185.30
2023-04-20T12:43:20.004Z,99180.12
2023-04-20T12:45:48.817Z,99184.25
2023-04-20T12:48:20.715Z,99187.36
2023-04-20T12:50:49.850Z,99187.14
2023-04-20T12:53:18.317Z,99184.78
2023-04-20T12:55:46.822Z,99177.05
2023-04-20T12:58:16.370Z,99179.46
2023-04-20T13:00:45.044Z,99172.52
2023-04-20T13:03:13.685Z,99170.13
2023-04-20T13:05:42.649Z,99172.66
2023-04-20T13:08:11.484Z,99172.65
2023-04-20T13:10:40.195Z,99170.67
2023-04-20T13:13:12.055Z,99170.34
2023-04-20T13:15:41.074Z,99169.70
2023-04-20T13:18:13.831Z,99172.66
2023-04-20T13:20:42.270Z,99171.45
2023-04-20T13:23:10.803Z,99178.81
2023-04-20T13:25:39.264Z,99179.55
2023-04-20T13:28:08.211Z,99186.90
2023-04-20T13:30:38.201Z,99184.10
2023-04-20T13:33:07.114Z,99188.79
2023-04-20T13:35:36.499Z,99186.00
2023-04-20T13:38:05.188Z,99190.16
2023-04-20T13:40:34.490Z,99193.85
2023-04-20T13:43:02.973Z,99204.33
2023-04-20T13:45:31.706Z,99211.55
2023-04-20T13:48:00.139Z,99211.20
2023-04-20T13:50:28.652Z,99195.77
2023-04-20T13:52:56.893Z,99187.05
2023-04-20T13:55:26.907Z,99185.17
2023-04-20T13:57:55.529Z,99183.84
2023-04-20T14:00:24.108Z,99185.81
2023-04-20T14:02:52.594Z,99184.35
2023-04-20T14:05:21.251Z,99187.65
2023-04-20T14:07:49.777Z,99183.21
2023-04-20T14:10:18.189Z,99185.21
2023-04-20T14:12:47.015Z,99184.52
2023-04-20T14:15:15.622Z,99185.66
2023-04-20T14:17:44.053Z,99185.98
2023-04-20T14:20:12.781Z,99186.92
2023-04-20T14:22:43.856Z,99187.71
2023-04-20T14:25:12.373Z,99190.92
2023-04-20T14:27:40.940Z,99199.14
2023-04-20T14:30:10.183Z,99193.61
2023-04-20T14:32:39.013Z,99200.30
2023-04-20T14:35:09.364Z,99200.86
2023-04-20T14:37:37.653Z,99199.25
2023-04-20T14:40:07.936Z,99193.77
2023-04-20T14:42:36.573Z,99184.69
2023-04-20T14:45:05.638Z,99185.70
2023-04-20T14:47:34.122Z,99187.02
2023-04-20T14:50:02.540Z,99187.67
2023-04-20T14:52:31.294Z,99188.97
2023-04-20T14:54:59.809Z,99194.73
2023-04-20T14:57:28.923Z,99190.95
2023-04-20T14:59:57.521Z,99180.04
2023-04-20T15:02:26.160Z,99182.86
2023-04-20T15:04:57.382Z,99185.75
2023-04-20T15:07:28.052Z,99188.55
2023-04-20T15:09:56.401Z,99192.88
2023-04-20T15:12:24.790Z,99189.23
2023-04-20T15:14:53.491Z,99187.34
2023-04-20T15:17:21.824Z,99182.06
2023-04-20T15:19:50.316Z,99176.66
2023-04-20T15:22:19.169Z,99181.88
2023-04-20T15:24:47.617Z,99179.77
2023-04-20T15:27:17.294Z,99181.86
2023-04-20T15:29:45.807Z,99176.04
2023-04-20T15:32:14.526Z,99179.98
2023-04-20T15:34:43.189Z,99179.61
2023-04-20T15:37:11.597Z,99176.14
2023-04-20T15:39:40.105Z,99180.73
2023-04-20T15:42:08.698Z,99181.64
2023-04-20T15:44:37.551Z,99179.77
2023-04-20T15:47:05.967Z,99179.67
2023-04-20T15:49:37.411Z,99178.40
2023-04-20T15:52:05.662Z,99175.61
2023-04-20T15:54:34.616Z,99174.92
2023-04-20T15:57:03.984Z,99175.20
2023-04-20T15:59:32.856Z,99176.30
2023-04-20T16:02:01.357Z,99173.75
2023-04-20T16:04:30.165Z,99170.80
2023-04-20T16:06:58.779Z,99174.39
2023-04-20T16:09:27.128Z,99172.11
2023-04-20T16:11:55.691Z,99172.00
2023-04-20T16:14:24.273Z,99173.21
2023-04-20T16:16:52.832Z,99172.31
2023-04-20T16:19:21.167Z,99177.10
2023-04-20T16:21:49.494Z,99173.23
2023-04-20T16:24:18.139Z,99177.99
2023-04-20T16:26:46.919Z,99178.07
2023-04-20T16:29:15.275Z,99179.92
2023-04-20T16:31:43.810Z,99177.08
2023-04-20T16:34:12.194Z,99179.76
2023-04-20T16:36:41.084Z,99174.98
2023-04-20T16:39:10.318Z,99178.38
2023-04-20T16:41:38.618Z,99177.04
2023-04-20T16:44:07.066Z,99182.02
2023-04-20T16:46:35.884Z,99181.77
2023-04-20T16:49:04.147Z,99182.68
2023-04-20T16:51:33.506Z,99182.81
2023-04-20T16:54:02.071Z,99180.54
2023-04-20T16:56:30.321Z,99183.89
2023-04-20T16:58:58.632Z,99185.74
2023-04-20T17:01:27.006Z,99185.98
2023-04-20T17:03:55.479Z,99187.29
2023-04-20T17:06:24.074Z,99182.54
2023-04-20T17:08:55.491Z,99182.28
2023-04-20T17:11:23.967Z,99183.09
2023-04-20T17:13:53.022Z,99182.63
2023-04-20T17:16:22.060Z,99184.11
2023-04-20T17:18:52.152Z,99186.88
2023-04-20T17:21:20.734Z,99186.57
2023-04-20T17:23:49.151Z,99186.84
2023-04-20T17:26:17.604Z,99182.00
2023-04-20T17:28:46.597Z,99179.73
2023-04-20T17:31:15.271Z,99183.31
2023-04-20T17:33:45.132Z,99183.11
2023-04-20T17:36:13.529Z,99180.94
2023-04-20T17:38:43.372Z,99181.73
2023-04-20T17:41:12.083Z,99180.54
2023-04-20T17:43:41.223Z,99184.29
2023-04-20T17:46:09.583Z,99182.88
2023-04-20T17:48:37.961Z,99179.61
2023-04-20T17:51:06.496Z,99178.10
2023-04-20T17:53:34.828Z,99172.30
2023-04-20T17:56:03.792Z,99177.75
2023-04-20T17:58:32.536Z,99175.95
2023-04-20T18:01:01.114Z,99177.54
2023-04-20T18:03:29.546Z,99179.70
2023-04-20T18:05:59.121Z,99185.31
2023-04-20T18:08:29.456Z,99186.82
2023-04-20T18:10:57.667Z,99190.94
2023-04-20T18:13:26.436Z,99195.40
2023-04-20T18:15:54.811Z,99198.88
2023-04-20T18:18:23.182Z,99203.48
2023-04-20T18:20:51.962Z,99210.45
2023-04-20T18:23:20.427Z,99212.73
2023-04-20T18:25:48.691Z,99215.56
2023-04-20T18:28:16.938Z,99219.67
2023-04-20T18:30:45.267Z,99218.89
2023-04-20T18:33:15.585Z,99216.25
2023-04-20T18:35:44.640Z,99211.07
2023-04-20T18:38:13.023Z,99214.98
2023-04-20T18:40:41.882Z,99214.10
2023-04-20T18:43:10.619Z,99217.45
2023-04-20T18:45:39.276Z,99221.39
2023-04-20T18:48:07.820Z,99221.16
2023-04-20T18:50:36.377Z,99218.67
2023-04-20T18:53:05.387Z,99215.77
2023-04-20T18:55:33.803Z,99212.95
2023-04-20T18:58:02.183Z,99213.19
2023-04-20T19:00:31.118Z,99205.48
2023-04-20T19:02:59.596Z,99207.95
2023-04-20T19:05:28.061Z,99211.21
2023-04-20T19:07:56.565Z,99213.21
2023-04-20T19:10:25.887Z,99226.81
2023-04-20T19:12:55.743Z,99232.30
2023-04-20T19:15:25.936Z,99246.54
2023-04-20T19:17:57.743Z,99250.28
2023-04-20T19:20:26.449Z,99261.19
2023-04-20T19:22:54.926Z,99253.55
2023-04-20T19:25:23.513Z,99249.34
2023-04-20T19:27:52.219Z,99252.30
2023-04-20T19:30:20.788Z,99250.63
2023-04-20T19:32:49.432Z,99247.70
2023-04-20T19:35:17.848Z,99245.95
2023-04-20T19:37:46.810Z,99245.17
2023-04-20T19:40:15.175Z,99252.88
2023-04-20T19:42:43.513Z,99256.70
2023-04-20T19:45:11.863Z,99248.20
2023-04-20T19:47:40.296Z,99246.90
2023-04-20T19:50:09.017Z,99249.09
2023-04-20T19:52:37.704Z,99253.37
2023-04-20T19:55:06.623Z,99249.52
2023-04-20T19:57:35.125Z,99248.42
2023-04-20T20:00:04.930Z,99254.11
2023-04-20T20:02:41.891Z,99250.75
2023-04-20T20:05:10.672Z,99248.14
2023-04-20T20:07:38.944Z,99247.01
2023-04-20T20:10:08.011Z,99237.94
2023-04-20T20:12:36.778Z,99241.20
2023-04-20T20:15:05.742Z,99237.80
2023-04-20T20:17:34.678Z,99235.08
2023-04-20T20:21:16.108Z,99235.48
2023-04-20T20:23:44.681Z,99228.44
2023-04-20T20:26:13.107Z,99237.34
2023-04-20T20:28:41.535Z,99246.98
2023-04-20T20:31:10.179Z,99249.18
2023-04-20T20:33:38.400Z,99246.33
2023-04-20T20:36:07.093Z,99241.05
2023-04-20T20:38:35.829Z,99241.30
2023-04-20T20:41:06.804Z,99239.34
2023-04-20T20:43:35.202Z,99236.95
2023-04-20T20:46:03.649Z,99233.60
2023-04-20T20:48:31.914Z,99232.27
2023-04-20T20:51:00.291Z,99224.90
2023-04-20T20:53:28.909Z,99228.44
2023-04-20T20:55:57.443Z,99222.59
2023-04-20T20:58:25.925Z,99227.13
2023-04-20T21:00:54.352Z,99227.42
2023-04-20T21:03:23.560Z,99223.55
2023-04-20T21:05:52.190Z,99219.67
2023-04-20T21:08:20.877Z,99215.86
2023-04-20T21:10:49.441Z,99217.48
2023-04-20T21:13:19.745Z,99218.68
2023-04-20T21:15:48.250Z,99214.86
2023-04-20T21:18:16.789Z,99218.13
2023-04-20T21:20:45.046Z,99222.41
2023-04-20T21:23:13.601Z,99218.15
2023-04-20T21:25:41.882Z,99215.13
2023-04-20T21:28:11.052Z,99211.45
2023-04-20T21:30:39.488Z,99206.26
2023-04-20T21:33:07.821Z,99205.02
2023-04-20T21:35:36.641Z,99207.88
2023-04-20T21:38:05.044Z,99204.24
2023-04-20T21:40:34.394Z,99201.73
2023-04-20T21:43:02.979Z,99198.34
2023-04-20T21:45:31.352Z,99195.70
2023-04-20T21:47:59.645Z,99195.00
2023-04-20T21:50:28.805Z,99192.34
2023-04-20T21:52:57.193Z,99188.48
2023-04-20T21:55:25.606Z,99186.37
2023-04-20T21:57:54.035Z,99185.95
2023-04-20T22:00:22.848Z,99184.02
2023-04-20T22:02:51.899Z,99189.31
2023-04-20T22:05:20.456Z,99191.98
2023-04-20T22:07:49.320Z,99190.27
2023-04-20T22:10:17.583Z,99188.31
2023-04-20T22:12:46.649Z,99181.77
2023-04-20T22:15:15.287Z,99179.95
2023-04-20T22:17:47.904Z,99173.04
2023-04-20T22:20:17.174Z,99166.45
2023-04-20T22:22:46.002Z,99163.14
2023-04-20T22:25:14.235Z,99168.00
2023-04-20T22:27:42.698Z,99168.44
2023-04-20T22:30:11.561Z,99161.21
2023-04-20T22:32:41.249Z,99157.69
2023-04-20T22:35:10.422Z,99154.61
2023-04-20T22:37:38.806Z,99154.35
2023-04-20T22:40:08.122Z,99146.50
2023-04-20T22:42:36.721Z,99144.25
2023-04-20T22:45:05.726Z,99141.34
2023-04-20T22:47:35.258Z,99139.97
2023-04-20T22:50:04.005Z,99144.14
2023-04-20T22:52:32.592Z,99137.52
2023-04-20T22:55:01.027Z,99135.35
2023-04-20T22:57:29.703Z,99131.11
2023-04-20T22:59:57.948Z,99126.95
2023-04-20T23:02:27.056Z,99129.02
2023-04-20T23:04:56.011Z,99126.92
2023-04-20T23:07:24.344Z,99126.36
2023-04-20T23:09:53.925Z,99122.23
2023-04-20T23:12:22.689Z,99123.20
2023-04-20T23:14:50.962Z,99119.71
2023-04-20T23:17:19.302Z,99120.91
2023-04-20T23:19:47.914Z,99115.41
2023-04-20T23:22:16.682Z,99117.30
2023-04-20T23:24:45.639Z,99115.84
2023-04-20T23:27:14.073Z,99116.62
2023-04-20T23:29:42.346Z,99114.89
2023-04-20T23:32:11.080Z,99114.61
2023-04-20T23:34:39.758Z,99116.59
2023-04-20T23:37:08.160Z,99116.84
2023-04-20T23:39:37.791Z,99121.19
2023-04-20T23:42:06.490Z,99127.09
2023-04-20T23:44:35.510Z,99124.95
2023-04-20T23:47:04.336Z,99128.84
2023-04-20T23:49:32.647Z,99131.42
2023-04-20T23:52:01.243Z,99131.85
2023-04-20T23:54:31.237Z,99131.90
2023-04-20T23:57:01.412Z,99136.03
2023-04-20T23:59:29.838Z,99136.36
